Time;durP1;ratioP1;P1;durP2;ratioP2;P2;SDS_P1;SDS_P2;PMS_P1;PMS_P2;Temp;Humidity;BMP_temperature;BMP_pressure;BME280_temperature;BME280_humidity;BME280_pressure;Samples;Min_cycle;Max_cycle;Signal;HPM_P1;HPM_P2
2023/03/01 00:01:54;;;;;;;4.50;4.20;;;19.20;36.20;;;;;;4992450;28;20258;-63
2023/03/01 00:04:20;;;;;;;3.43;3.23;;;19.20;36.30;;;;;;4996825;28;20215;-63
2023/03/01 00:06:46;;;;;;;3.57;3.37;;;19.20;36.30;;;;;;4993183;28;20225;-63
2023/03/01 00:09:12;;;;;;;3.67;3.37;;;19.30;36.30;;;;;;4983976;28;20236;-63
2023/03/01 00:11:38;;;;;;;3.10;2.90;;;19.30;36.30;;;;;;4984635;28;20590;-63
2023/03/01 00:14:07;;;;;;;3.43;3.13;;;19.30;36.30;;;;;;4991700;28;20432;-63
2023/03/01 00:16:36;;;;;;;3.70;3.47;;;19.20;36.30;;;;;;4996134;28;20224;-63
2023/03/01 00:19:02;;;;;;;3.70;3.40;;;19.20;36.20;;;;;;4992478;28;22995;-63
2023/03/01 00:21:28;;;;;;;3.33;3.03;;;19.20;36.20;;;;;;4997472;28;20566;-63
2023/03/01 00:23:54;;;;;;;3.47;3.17;;;19.20;36.30;;;;;;4983259;28;20443;-63
2023/03/01 00:26:22;;;;;;;3.80;3.60;;;19.20;36.20;;;;;;4983224;28;20225;-64
2023/03/01 00:28:47;;;;;;;3.77;3.57;;;19.20;36.30;;;;;;4985477;28;20564;-63
2023/03/01 00:31:16;;;;;;;3.90;3.50;;;19.20;36.30;;;;;;4993519;28;21019;-63
2023/03/01 00:33:42;;;;;;;3.40;3.10;;;19.20;36.20;;;;;;4995756;28;20313;-63
2023/03/01 00:36:09;;;;;;;3.40;3.20;;;19.20;36.30;;;;;;4999791;28;21332;-63
2023/03/01 00:38:39;;;;;;;2.90;2.70;;;19.20;36.60;;;;;;4995607;28;20431;-63
2023/03/01 00:41:07;;;;;;;3.10;2.90;;;19.20;36.20;;;;;;4997495;28;20455;-63
2023/03/01 00:43:36;;;;;;;3.50;3.30;;;19.20;36.30;;;;;;4990541;28;20490;-64
2023/03/01 00:46:23;;;;;;;3.33;3.13;;;19.20;36.20;;;;;;4993612;28;20530;-63
2023/03/01 00:48:49;;;;;;;3.13;2.93;;;19.20;36.20;;;;;;4991316;28;20459;-63
2023/03/01 00:51:23;;;;;;;3.30;3.10;;;19.20;36.20;;;;;;4991974;28;20453;-63
2023/03/01 00:53:58;;;;;;;3.53;3.33;;;19.20;36.20;;;;;;4982711;28;20307;-63
2023/03/01 00:56:24;;;;;;;3.40;3.20;;;19.20;36.20;;;;;;4998926;28;20493;-63
2023/03/01 00:58:50;;;;;;;3.40;3.10;;;19.20;36.30;;;;;;4994377;28;20447;-64
2023/03/01 01:01:19;;;;;;;2.63;2.53;;;19.20;36.30;;;;;;4985687;28;20267;-63
2023/03/01 01:04:03;;;;;;;3.47;3.27;;;19.20;36.30;;;;;;4991289;28;20920;-63
2023/03/01 01:06:31;;;;;;;2.90;2.70;;;19.20;36.30;;;;;;4991297;28;20435;-63
2023/03/01 01:08:57;;;;;;;3.50;3.20;;;19.20;36.30;;;;;;4992906;28;20442;-64
2023/03/01 01:11:26;;;;;;;3.30;3.10;;;19.20;36.30;;;;;;4988550;28;20420;-63
2023/03/01 01:13:51;;;;;;;3.33;3.13;;;19.20;36.30;;;;;;4988705;28;20285;-63
2023/03/01 01:16:18;;;;;;;3.33;3.13;;;19.20;36.30;;;;;;4994064;28;20435;-63
2023/03/01 01:18:45;;;;;;;3.67;3.47;;;19.10;36.30;;;;;;4998636;28;20255;-63
2023/03/01 01:21:13;;;;;;;2.93;2.73;;;19.20;36.40;;;;;;4998256;28;20431;-64
2023/03/01 01:23:40;;;;;;;3.67;3.40;;;19.20;36.30;;;;;;4994507;28;20798;-65
2023/03/01 01:26:07;;;;;;;2.90;2.70;;;19.20;36.30;;;;;;4994529;28;20540;-63
2023/03/01 01:28:33;;;;;;;3.47;3.27;;;19.20;36.30;;;;;;4997646;28;21010;-63
2023/03/01 01:30:59;;;;;;;3.50;3.30;;;19.20;36.30;;;;;;4995515;28;20480;-64
2023/03/01 01:33:25;;;;;;;3.23;3.03;;;19.20;36.30;;;;;;4998145;28;20219;-63
2023/03/01 01:35:50;;;;;;;3.20;3.00;;;19.20;36.30;;;;;;4994934;28;20310;-64
2023/03/01 01:38:16;;;;;;;3.13;2.93;;;19.20;36.30;;;;;;4994101;28;20282;-63
2023/03/01 01:40:46;;;;;;;3.10;2.90;;;19.20;36.30;;;;;;4978208;28;20724;-64
2023/03/01 01:43:24;;;;;;;2.87;2.67;;;19.20;36.30;;;;;;4995267;28;20225;-63
2023/03/01 01:45:54;;;;;;;3.43;3.23;;;19.20;36.30;;;;;;4994150;28;20495;-64
2023/03/01 01:48:23;;;;;;;3.13;2.93;;;19.20;36.30;;;;;;4993155;28;20447;-64
2023/03/01 01:51:01;;;;;;;2.93;2.73;;;19.20;36.30;;;;;;4991794;28;20485;-64
2023/03/01 01:53:26;;;;;;;4.77;3.17;;;19.20;36.30;;;;;;4991650;28;21069;-64
2023/03/01 01:55:56;;;;;;;3.17;2.97;;;19.20;36.30;;;;;;4978480;28;20449;-63
2023/03/01 01:58:26;;;;;;;3.17;2.87;;;19.20;37.10;;;;;;4982983;28;20582;-64
2023/03/01 02:00:53;;;;;;;2.90;2.70;;;19.20;36.40;;;;;;4995507;28;21890;-64
2023/03/01 02:03:28;;;;;;;3.23;3.03;;;19.20;36.40;;;;;;4985882;28;20446;-63
2023/03/01 02:06:06;;;;;;;7.90;2.90;;;19.20;36.40;;;;;;4995672;28;21354;-64
2023/03/01 02:08:36;;;;;;;2.77;2.57;;;19.10;36.30;;;;;;4997488;28;20498;-63
2023/03/01 02:11:04;;;;;;;2.97;2.77;;;19.20;36.30;;;;;;4987026;28;20461;-63
2023/03/01 02:13:31;;;;;;;2.93;2.73;;;19.20;36.30;;;;;;4987795;28;20444;-63
2023/03/01 02:15:56;;;;;;;2.87;2.60;;;19.20;36.40;;;;;;4991354;28;20473;-63
2023/03/01 02:18:24;;;;;;;2.87;2.67;;;19.20;36.30;;;;;;4990251;28;20433;-64
2023/03/01 02:21:10;;;;;;;3.30;3.10;;;19.20;36.30;;;;;;4987970;28;20820;-63
2023/03/01 02:23:36;;;;;;;2.80;2.60;;;19.20;37.10;;;;;;4982346;28;20524;-63
2023/03/01 02:26:25;;;;;;;3.10;2.90;;;19.20;36.30;;;;;;4993054;28;20473;-63
2023/03/01 02:28:51;;;;;;;3.20;3.00;;;19.20;36.30;;;;;;4992140;28;20373;-64
2023/03/01 02:34:05;;;;;;;2.57;2.47;;;19.20;36.30;;;;;;4995752;28;20230;-64
2023/03/01 02:36:36;;;;;;;3.10;2.90;;;19.20;36.30;;;;;;4999025;28;20486;-64
2023/03/01 02:39:05;;;;;;;2.60;2.50;;;19.20;36.30;;;;;;4989664;28;20462;-63
2023/03/01 02:41:36;;;;;;;2.40;2.23;;;19.10;36.30;;;;;;4993606;28;20424;-65
2023/03/01 02:44:03;;;;;;;2.83;2.63;;;19.20;36.30;;;;;;4996884;28;20820;-63
2023/03/01 02:46:29;;;;;;;2.87;2.67;;;19.20;36.30;;;;;;4997350;28;20464;-64
2023/03/01 02:48:56;;;;;;;3.10;2.43;;;19.10;36.30;;;;;;4995016;28;20483;-64
2023/03/01 02:51:47;;;;;;;3.00;2.80;;;19.20;36.30;;;;;;4993058;28;20799;-64
2023/03/01 02:54:59;;;;;;;2.90;2.70;;;19.20;36.30;;;;;;4991266;28;20447;-64
2023/03/01 02:57:27;;;;;;;3.17;2.97;;;19.20;36.30;;;;;;4962812;28;20882;-64
2023/03/01 02:59:54;;;;;;;2.80;2.60;;;19.10;36.20;;;;;;4988054;28;20453;-63
2023/03/01 03:02:38;;;;;;;2.33;2.23;;;19.10;36.40;;;;;;4982334;28;24222;-63
2023/03/01 03:05:12;;;;;;;3.10;2.80;;;19.10;36.50;;;;;;4988581;28;20440;-63
2023/03/01 03:07:40;;;;;;;2.80;2.70;;;19.10;36.30;;;;;;4984698;28;20448;-64
2023/03/01 03:10:11;;;;;;;3.13;2.93;;;19.10;36.30;;;;;;4996578;28;20510;-63
2023/03/01 03:12:37;;;;;;;2.50;2.40;;;19.10;36.30;;;;;;4984343;28;20997;-64
2023/03/01 03:15:08;;;;;;;2.60;2.47;;;19.10;36.30;;;;;;4987070;28;20576;-63
2023/03/01 03:17:35;;;;;;;3.00;2.80;;;19.10;36.30;;;;;;4993957;28;20440;-63
2023/03/01 03:20:01;;;;;;;3.20;3.00;;;19.10;36.30;;;;;;4980531;28;20451;-63
2023/03/01 03:22:28;;;;;;;3.03;2.83;;;19.10;36.20;;;;;;4989673;28;20435;-64
2023/03/01 03:24:54;;;;;;;3.37;3.07;;;19.10;36.30;;;;;;4989562;28;20246;-64
2023/03/01 03:27:19;;;;;;;2.90;2.70;;;19.10;36.30;;;;;;4995647;28;20571;-64
2023/03/01 03:29:45;;;;;;;2.70;2.50;;;19.10;36.20;;;;;;4999238;28;20215;-63
2023/03/01 03:32:10;;;;;;;2.53;2.33;;;19.10;36.20;;;;;;4989834;28;20224;-64
2023/03/01 03:34:36;;;;;;;2.60;2.40;;;19.10;36.20;;;;;;4998159;28;20293;-63
2023/03/01 03:37:01;;;;;;;2.83;2.63;;;19.10;36.20;;;;;;4999398;28;20236;-64
2023/03/01 03:39:34;;;;;;;2.53;2.43;;;19.10;36.20;;;;;;5000882;28;20231;-64
2023/03/01 03:42:00;;;;;;;2.93;2.73;;;19.10;36.20;;;;;;4991089;28;20220;-64
2023/03/01 03:44:25;;;;;;;3.80;3.50;;;19.10;36.30;;;;;;5001657;28;20445;-63
2023/03/01 03:46:51;;;;;;;2.47;2.37;;;19.10;36.30;;;;;;4993387;28;20262;-64
2023/03/01 03:49:16;;;;;;;3.10;2.80;;;19.10;36.30;;;;;;4998096;28;20583;-64
2023/03/01 03:51:42;;;;;;;2.77;2.57;;;19.10;37.00;;;;;;5010581;28;20761;-64
2023/03/01 03:54:07;;;;;;;3.20;3.00;;;19.10;36.20;;;;;;4989602;28;20227;-64
2023/03/01 03:56:33;;;;;;;2.40;2.30;;;19.10;36.30;;;;;;4985116;28;20283;-64
2023/03/01 03:58:58;;;;;;;2.40;2.30;;;19.10;36.30;;;;;;4991279;28;20235;-64
2023/03/01 04:01:24;;;;;;;2.50;2.30;;;19.10;36.30;;;;;;4995209;28;20230;-65
2023/03/01 04:03:54;;;;;;;3.10;2.90;;;19.10;37.00;;;;;;4998562;28;20317;-63
2023/03/01 04:06:19;;;;;;;2.60;2.40;;;19.10;36.20;;;;;;4995966;28;20220;-63
2023/03/01 04:08:45;;;;;;;2.70;2.50;;;19.10;36.30;;;;;;4992032;28;20445;-64
2023/03/01 04:11:26;;;;;;;2.43;2.30;;;19.10;36.20;;;;;;4988882;28;20235;-64
2023/03/01 04:13:54;;;;;;;2.47;2.37;;;19.10;36.20;;;;;;4990548;28;20239;-65
2023/03/01 04:16:20;;;;;;;3.10;2.90;;;19.10;36.20;;;;;;4998090;28;20497;-64
2023/03/01 04:18:45;;;;;;;3.00;2.80;;;19.10;36.20;;;;;;4991376;28;20569;-64
2023/03/01 04:21:12;;;;;;;2.60;2.43;;;19.10;36.20;;;;;;4995858;28;20287;-64
2023/03/01 04:23:38;;;;;;;2.97;2.67;;;19.10;36.20;;;;;;4998243;28;20223;-65
2023/03/01 04:26:03;;;;;;;2.77;2.60;;;19.10;36.20;;;;;;4999808;28;20453;-65
2023/03/01 04:28:34;;;;;;;2.23;2.13;;;19.10;37.00;;;;;;4997871;28;20497;-64
2023/03/01 04:31:12;;;;;;;2.80;2.60;;;19.10;36.90;;;;;;4994158;28;20252;-64
2023/03/01 04:33:44;;;;;;;3.20;2.73;;;19.10;36.20;;;;;;4994583;28;21267;-64
2023/03/01 04:36:10;;;;;;;2.47;2.37;;;19.10;36.20;;;;;;4994247;28;20434;-64
2023/03/01 04:38:40;;;;;;;2.50;2.40;;;19.10;36.10;;;;;;4990541;28;20463;-64
2023/03/01 04:41:10;;;;;;;2.57;2.47;;;19.10;36.10;;;;;;4990961;28;20469;-63
2023/03/01 04:43:37;;;;;;;2.90;2.70;;;19.10;36.10;;;;;;4993865;28;20429;-63
2023/03/01 04:46:06;;;;;;;2.40;2.30;;;19.10;36.10;;;;;;4991213;28;20953;-64
2023/03/01 04:48:32;;;;;;;2.73;2.63;;;19.10;36.10;;;;;;4989287;28;21068;-63
2023/03/01 04:51:00;;;;;;;2.50;2.40;;;19.10;36.10;;;;;;4991810;28;20543;-63
2023/03/01 04:53:27;;;;;;;2.27;2.17;;;19.10;36.10;;;;;;4986618;28;20629;-64
2023/03/01 04:55:57;;;;;;;2.50;2.30;;;19.10;36.10;;;;;;4990462;28;20948;-63
2023/03/01 04:58:24;;;;;;;2.77;2.17;;;19.10;36.10;;;;;;4988939;28;21172;-62
2023/03/01 05:00:50;;;;;;;2.47;2.27;;;19.10;36.10;;;;;;4988060;28;20455;-63
2023/03/01 05:03:18;;;;;;;2.90;2.70;;;19.10;36.10;;;;;;4982666;28;20985;-64
2023/03/01 05:05:45;;;;;;;2.60;2.40;;;19.10;36.00;;;;;;4996955;28;20293;-65
2023/03/01 05:08:17;;;;;;;2.73;2.53;;;19.20;36.10;;;;;;4991389;28;20452;-64
2023/03/01 05:10:45;;;;;;;2.10;2.00;;;19.20;36.10;;;;;;4999034;28;20457;-64
2023/03/01 05:13:13;;;;;;;2.20;2.10;;;19.20;36.00;;;;;;4982109;28;20440;-65
2023/03/01 05:15:38;;;;;;;2.77;2.57;;;19.20;36.00;;;;;;4986571;28;20948;-64
2023/03/01 05:18:07;;;;;;;2.73;2.60;;;19.20;36.00;;;;;;4991115;28;20442;-63
2023/03/01 05:20:36;;;;;;;2.70;2.50;;;19.30;36.00;;;;;;4984056;28;20699;-64
2023/03/01 05:23:04;;;;;;;2.60;2.37;;;19.30;36.00;;;;;;4989225;28;20435;-62
2023/03/01 05:25:32;;;;;;;2.70;2.50;;;19.30;35.90;;;;;;4996518;28;20420;-62
2023/03/01 05:28:04;;;;;;;2.57;2.37;;;19.30;35.90;;;;;;4987192;28;20500;-63
2023/03/01 05:30:32;;;;;;;2.27;2.17;;;19.30;35.90;;;;;;4990551;28;20435;-64
2023/03/01 05:32:58;;;;;;;2.50;2.40;;;19.30;35.90;;;;;;4990454;28;20436;-66
2023/03/01 05:35:24;;;;;;;3.23;3.03;;;19.30;35.90;;;;;;4992815;28;20475;-68
2023/03/01 05:37:50;;;;;;;2.27;2.17;;;19.30;35.90;;;;;;4992761;28;20500;-65
2023/03/01 05:40:18;;;;;;;2.43;2.33;;;19.30;35.90;;;;;;4993717;28;20546;-64
2023/03/01 05:42:56;;;;;;;2.37;2.20;;;19.30;35.90;;;;;;4996728;28;20310;-65
2023/03/01 05:45:23;;;;;;;2.20;2.10;;;19.40;36.00;;;;;;4990101;28;21072;-64
2023/03/01 05:47:49;;;;;;;2.50;2.30;;;19.30;35.90;;;;;;4988966;28;21468;-65
2023/03/01 05:50:20;;;;;;;2.20;2.10;;;19.30;36.00;;;;;;4983227;28;20453;-65
2023/03/01 05:52:51;;;;;;;2.53;2.33;;;19.30;36.00;;;;;;4987185;28;20538;-64
2023/03/01 05:55:17;;;;;;;2.53;2.37;;;19.30;36.00;;;;;;4983480;28;20467;-64
2023/03/01 05:57:43;;;;;;;2.33;2.23;;;19.30;36.00;;;;;;4984360;28;20492;-65
2023/03/01 06:00:11;;;;;;;2.30;2.20;;;19.30;35.90;;;;;;4978121;28;20927;-64
2023/03/01 06:02:37;;;;;;;2.20;2.10;;;19.30;36.00;;;;;;4984787;28;20235;-64
2023/03/01 06:05:04;;;;;;;3.00;2.63;;;19.30;36.00;;;;;;4987518;28;20436;-64
2023/03/01 06:07:30;;;;;;;2.20;2.10;;;19.30;36.00;;;;;;4987587;28;20522;-64
2023/03/01 06:09:55;;;;;;;2.00;1.90;;;19.30;36.00;;;;;;4988276;28;20436;-64
2023/03/01 06:12:21;;;;;;;2.40;2.30;;;19.30;36.00;;;;;;4981573;28;20306;-65
2023/03/01 06:14:49;;;;;;;2.23;2.13;;;19.30;35.90;;;;;;4987046;28;20232;-66
2023/03/01 06:17:15;;;;;;;2.27;2.17;;;19.30;36.00;;;;;;4984300;28;20219;-68
2023/03/01 06:19:40;;;;;;;2.43;2.23;;;19.30;36.00;;;;;;4976769;28;21152;-66
2023/03/01 06:22:06;;;;;;;1.80;1.70;;;19.30;35.90;;;;;;4988383;28;21685;-66
2023/03/01 06:24:32;;;;;;;1.90;1.80;;;19.30;35.90;;;;;;4988917;28;20227;-65
2023/03/01 06:26:58;;;;;;;2.20;2.10;;;19.30;36.00;;;;;;4991840;28;20790;-67
2023/03/01 06:29:24;;;;;;;2.13;2.03;;;19.30;35.90;;;;;;4982578;28;20521;-67
2023/03/01 06:31:49;;;;;;;2.37;2.27;;;19.30;35.90;;;;;;4983279;28;20634;-66
2023/03/01 06:34:15;;;;;;;2.50;2.30;;;19.30;35.90;;;;;;4961184;28;20698;-67
2023/03/01 06:36:41;;;;;;;2.50;2.40;;;19.30;35.90;;;;;;4986042;28;20211;-67
2023/03/01 06:39:06;;;;;;;2.13;2.03;;;19.30;35.90;;;;;;4985620;28;20219;-67
2023/03/01 06:41:33;;;;;;;2.87;2.67;;;19.30;35.90;;;;;;4987895;28;20337;-67
2023/03/01 06:43:59;;;;;;;3.87;3.00;;;19.30;35.90;;;;;;4985073;28;20785;-67
2023/03/01 06:46:25;;;;;;;2.53;2.43;;;19.30;35.90;;;;;;4991225;28;20480;-67
2023/03/01 06:48:50;;;;;;;2.97;2.77;;;19.30;35.90;;;;;;4981865;28;20459;-66
2023/03/01 06:51:16;;;;;;;2.40;2.20;;;19.30;35.90;;;;;;4994593;28;20223;-67
2023/03/01 06:53:41;;;;;;;2.60;2.40;;;19.30;35.90;;;;;;4984888;28;20227;-67
2023/03/01 06:56:07;;;;;;;2.10;2.00;;;19.30;35.90;;;;;;4985015;28;20583;-66
2023/03/01 06:58:32;;;;;;;2.27;2.17;;;19.30;35.90;;;;;;4989563;28;20309;-66
2023/03/01 07:00:58;;;;;;;3.03;2.73;;;19.30;35.90;;;;;;4989825;28;20224;-66
2023/03/01 07:03:23;;;;;;;2.10;2.00;;;19.30;35.80;;;;;;4995769;28;20303;-66
2023/03/01 07:05:52;;;;;;;2.37;2.20;;;19.30;35.90;;;;;;4997026;28;20222;-66
2023/03/01 07:08:18;;;;;;;2.60;2.50;;;19.30;35.80;;;;;;4985072;28;20237;-67
2023/03/01 07:10:44;;;;;;;2.40;2.30;;;19.30;35.80;;;;;;4989883;28;20481;-66
2023/03/01 07:13:09;;;;;;;2.47;2.37;;;19.30;35.80;;;;;;4992913;28;20857;-74
2023/03/01 07:15:35;;;;;;;2.43;2.23;;;19.30;35.70;;;;;;4994277;28;20270;-66
2023/03/01 07:18:01;;;;;;;2.53;2.33;;;19.30;35.70;;;;;;4994377;28;20326;-66
2023/03/01 07:20:26;;;;;;;2.63;2.43;;;19.30;35.70;;;;;;4992676;28;20583;-66
2023/03/01 07:22:53;;;;;;;2.60;2.40;;;19.30;35.70;;;;;;4984874;28;20582;-66
2023/03/01 07:25:18;;;;;;;2.83;2.43;;;19.30;35.70;;;;;;4981569;28;20223;-66
2023/03/01 07:27:48;;;;;;;2.40;2.20;;;19.30;35.70;;;;;;4996545;28;20451;-66
2023/03/01 07:30:14;;;;;;;2.70;2.50;;;19.30;35.70;;;;;;4990774;28;20238;-66
2023/03/01 07:32:39;;;;;;;3.13;2.93;;;19.30;35.70;;;;;;4983414;28;20419;-66
2023/03/01 07:35:05;;;;;;;2.40;2.27;;;19.30;35.70;;;;;;4995618;28;20231;-66
2023/03/01 07:37:31;;;;;;;2.60;2.40;;;19.30;35.60;;;;;;4998492;28;20298;-66
2023/03/01 07:39:57;;;;;;;2.67;2.53;;;19.30;35.70;;;;;;4986646;28;20461;-66
2023/03/01 07:42:23;;;;;;;2.60;2.10;;;19.30;35.60;;;;;;4995748;28;20558;-66
2023/03/01 07:44:48;;;;;;;3.17;2.97;;;19.20;35.60;;;;;;4993552;28;20454;-66
2023/03/01 07:47:14;;;;;;;2.20;2.10;;;19.30;35.70;;;;;;4978796;28;20250;-66
2023/03/01 07:49:39;;;;;;;2.70;2.50;;;19.20;36.30;;;;;;4987796;28;20322;-65
2023/03/01 07:52:05;;;;;;;2.50;2.13;;;19.30;35.70;;;;;;4993301;28;20274;-66
2023/03/01 07:54:30;;;;;;;2.00;1.90;;;19.20;35.50;;;;;;4977669;28;20334;-66
2023/03/01 07:56:57;;;;;;;2.30;2.20;;;19.30;35.70;;;;;;4993473;28;20231;-66
2023/03/01 07:59:28;;;;;;;2.73;2.53;;;19.30;35.70;;;;;;4980716;28;20261;-66
2023/03/01 08:01:54;;;;;;;2.07;1.97;;;19.30;35.70;;;;;;4999573;28;20461;-66
2023/03/01 08:04:20;;;;;;;2.30;2.20;;;19.30;35.60;;;;;;4982226;28;21116;-71
2023/03/01 08:06:45;;;;;;;2.10;2.00;;;19.30;35.60;;;;;;4993752;28;20456;-69
2023/03/01 08:09:11;;;;;;;2.17;1.90;;;19.30;35.60;;;;;;4984828;28;20331;-70
2023/03/01 08:11:37;;;;;;;2.70;2.50;;;19.30;35.60;;;;;;4987483;28;20223;-70
2023/03/01 08:14:02;;;;;;;2.80;2.60;;;19.30;35.50;;;;;;4988512;28;20235;-70
2023/03/01 08:16:28;;;;;;;5.73;2.33;;;19.30;35.40;;;;;;4994978;28;20420;-69
2023/03/01 08:18:56;;;;;;;2.60;2.30;;;19.30;35.40;;;;;;4992480;28;20219;-72
2023/03/01 08:21:22;;;;;;;2.70;2.27;;;19.30;35.20;;;;;;4996110;28;20703;-68
2023/03/01 08:23:47;;;;;;;2.90;2.40;;;19.30;35.10;;;;;;4995687;28;20463;-70
2023/03/01 08:26:20;;;;;;;3.83;2.87;;;19.20;35.10;;;;;;4978732;28;20229;-68
2023/03/01 08:28:47;;;;;;;3.27;2.37;;;19.20;34.90;;;;;;4989704;28;20231;-67
2023/03/01 08:31:21;;;;;;;2.63;2.43;;;19.20;34.90;;;;;;4989170;28;20954;-69
2023/03/01 08:33:51;;;;;;;2.13;2.03;;;19.20;34.90;;;;;;4989568;28;21035;-68
2023/03/01 08:36:17;;;;;;;6.57;2.50;;;19.20;35.60;;;;;;4994600;28;20484;-69
2023/03/01 08:38:44;;;;;;;7.53;2.77;;;19.20;34.70;;;;;;4996781;28;20435;-69
2023/03/01 08:41:09;;;;;;;3.77;2.70;;;19.20;34.70;;;;;;4990505;28;20432;-71
2023/03/01 08:43:35;;;;;;;2.57;2.37;;;19.20;34.50;;;;;;4984988;28;21095;-68
2023/03/01 08:46:00;;;;;;;2.80;2.60;;;19.20;34.50;;;;;;4995989;28;20282;-68
2023/03/01 08:48:28;;;;;;;2.70;2.50;;;19.20;34.50;;;;;;5023764;28;20379;-68
2023/03/01 08:50:53;;;;;;;2.50;2.37;;;19.20;34.30;;;;;;4992705;28;20307;-68
2023/03/01 08:53:19;;;;;;;3.20;2.90;;;19.20;34.30;;;;;;4993382;28;20446;-66
2023/03/01 08:55:44;;;;;;;4.33;2.20;;;19.20;34.30;;;;;;4987172;28;20320;-68
2023/03/01 08:58:10;;;;;;;2.77;2.57;;;19.20;34.30;;;;;;4995356;28;20243;-69
2023/03/01 09:00:35;;;;;;;3.87;2.50;;;19.20;34.20;;;;;;4996968;28;20219;-69
2023/03/01 09:03:02;;;;;;;2.30;2.20;;;19.20;34.20;;;;;;4988621;28;20335;-67
2023/03/01 09:05:27;;;;;;;2.50;2.40;;;19.20;34.10;;;;;;4985983;28;20565;-69
2023/03/01 09:07:53;;;;;;;2.70;2.50;;;19.20;34.00;;;;;;4987124;28;20989;-68
2023/03/01 09:10:18;;;;;;;10.23;2.40;;;19.20;34.00;;;;;;4975731;28;20702;-68
2023/03/01 09:12:44;;;;;;;2.20;2.00;;;19.20;34.00;;;;;;4986335;28;20214;-67
2023/03/01 09:15:10;;;;;;;2.27;2.07;;;19.20;33.90;;;;;;4985913;28;20223;-69
2023/03/01 09:17:35;;;;;;;2.40;2.20;;;19.20;33.80;;;;;;4993525;28;20250;-67
2023/03/01 09:20:01;;;;;;;2.30;2.20;;;19.20;33.90;;;;;;4989028;28;20436;-68
2023/03/01 09:22:26;;;;;;;2.70;2.50;;;19.20;33.90;;;;;;4984798;28;20223;-68
2023/03/01 09:24:52;;;;;;;2.40;2.30;;;19.20;33.80;;;;;;4988856;28;20230;-69
2023/03/01 09:27:18;;;;;;;2.20;2.00;;;19.20;33.80;;;;;;4989454;28;20679;-67
2023/03/01 09:29:44;;;;;;;2.30;2.20;;;19.20;33.80;;;;;;4986426;28;20247;-68
2023/03/01 09:32:10;;;;;;;2.37;2.27;;;19.30;33.90;;;;;;4970464;28;20427;-67
2023/03/01 09:35:00;;;;;;;2.50;2.30;;;19.30;33.90;;;;;;4980930;28;20472;-68
2023/03/01 09:37:24;;;;;;;2.03;1.93;;;19.30;33.80;;;;;;4984017;28;20230;-67
2023/03/01 09:39:49;;;;;;;2.37;2.27;;;19.30;33.80;;;;;;4988732;28;20439;-69
2023/03/01 09:42:16;;;;;;;3.30;2.50;;;19.30;33.80;;;;;;4988186;28;20222;-68
2023/03/01 09:44:57;;;;;;;2.97;2.77;;;19.30;33.80;;;;;;4981826;28;20223;-67
2023/03/01 09:47:28;;;;;;;2.37;2.20;;;19.30;33.80;;;;;;4989090;28;20444;-77
2023/03/01 09:50:14;;;;;;;2.30;2.20;;;19.30;33.90;;;;;;4985821;28;20519;-76
2023/03/01 09:53:01;;;;;;;2.43;2.23;;;19.20;33.80;;;;;;4994294;28;20423;-74
2023/03/01 09:55:34;;;;;;;2.30;2.20;;;19.20;33.80;;;;;;4982891;28;20551;-69
2023/03/01 09:58:23;;;;;;;2.30;2.20;;;19.20;33.80;;;;;;4990078;28;20465;-69
2023/03/01 10:00:50;;;;;;;2.43;2.20;;;19.20;33.90;;;;;;4979707;28;20423;-69
2023/03/01 10:03:23;;;;;;;2.20;2.00;;;19.20;33.90;;;;;;4984114;28;20466;-69
2023/03/01 10:06:06;;;;;;;2.47;2.37;;;19.20;33.90;;;;;;4982713;28;20481;-69
2023/03/01 10:08:37;;;;;;;2.20;2.10;;;19.20;34.00;;;;;;4984384;28;20444;-69
2023/03/01 10:11:05;;;;;;;2.43;2.27;;;19.20;34.00;;;;;;4988029;28;20480;-69
2023/03/01 10:14:01;;;;;;;2.43;2.23;;;19.20;34.00;;;;;;4992094;28;20465;-69
2023/03/01 10:16:43;;;;;;;2.50;2.00;;;19.20;34.10;;;;;;4992098;28;20482;-69
2023/03/01 10:19:15;;;;;;;2.10;2.00;;;19.20;34.00;;;;;;4979823;28;20960;-69
2023/03/01 10:21:45;;;;;;;2.33;2.17;;;19.10;34.00;;;;;;4982236;28;20464;-69
2023/03/01 10:24:14;;;;;;;2.17;2.07;;;19.10;34.00;;;;;;4988333;28;20436;-68
2023/03/01 10:26:56;;;;;;;2.40;2.20;;;19.10;34.00;;;;;;4995434;28;20450;-68
2023/03/01 10:29:34;;;;;;;2.57;2.33;;;19.10;34.10;;;;;;4989586;28;20963;-68
2023/03/01 10:32:00;;;;;;;2.27;2.17;;;19.10;34.00;;;;;;4995189;28;20435;-68
2023/03/01 10:34:31;;;;;;;2.27;2.17;;;19.10;34.00;;;;;;4995988;28;20439;-69
2023/03/01 10:37:08;;;;;;;2.57;2.47;;;19.10;34.00;;;;;;4984959;28;20223;-68
2023/03/01 10:39:34;;;;;;;2.40;2.30;;;19.10;34.10;;;;;;4989509;28;20435;-69
2023/03/01 10:42:03;;;;;;;2.50;2.30;;;19.10;34.10;;;;;;4993387;28;20437;-69
2023/03/01 10:44:44;;;;;;;2.60;2.47;;;19.10;34.00;;;;;;4996715;28;20231;-69
2023/03/01 10:47:16;;;;;;;2.30;2.10;;;19.10;34.10;;;;;;5012030;28;20863;-68
2023/03/01 10:49:53;;;;;;;2.10;2.00;;;19.10;34.10;;;;;;4997110;28;20465;-68
2023/03/01 10:52:22;;;;;;;2.20;2.10;;;19.10;34.10;;;;;;4997360;28;20456;-68
2023/03/01 10:55:01;;;;;;;2.30;2.20;;;19.10;34.10;;;;;;4985720;28;20447;-68
2023/03/01 10:57:36;;;;;;;1.93;1.83;;;19.10;34.10;;;;;;4974924;28;20990;-68
2023/03/01 11:00:25;;;;;;;2.20;2.10;;;19.10;34.00;;;;;;4976454;28;20459;-68
2023/03/01 11:03:03;;;;;;;2.10;2.00;;;19.10;34.00;;;;;;4993012;28;20490;-71
2023/03/01 11:05:30;;;;;;;2.37;1.97;;;19.10;34.00;;;;;;4993366;28;20452;-69
2023/03/01 11:07:59;;;;;;;2.90;2.70;;;19.10;33.90;;;;;;4990888;28;20454;-73
2023/03/01 11:10:34;;;;;;;2.37;2.27;;;19.10;33.80;;;;;;4986999;28;21029;-73
2023/03/01 11:13:17;;;;;;;2.37;2.27;;;19.10;33.80;;;;;;4998379;28;20464;-73
2023/03/01 11:15:44;;;;;;;2.50;2.30;;;19.10;33.80;;;;;;4987933;28;20429;-76
2023/03/01 11:18:21;;;;;;;2.57;2.43;;;19.10;33.80;;;;;;4991429;28;20754;-73
2023/03/01 11:20:48;;;;;;;2.57;2.37;;;19.10;33.80;;;;;;4992888;28;20518;-75
2023/03/01 11:23:15;;;;;;;3.50;1.80;;;19.10;33.90;;;;;;4988702;28;21978;-76
2023/03/01 11:25:47;;;;;;;2.03;1.93;;;19.20;33.90;;;;;;5018702;28;20855;-75
2023/03/01 11:28:18;;;;;;;2.00;1.90;;;19.10;33.80;;;;;;4996854;28;20484;-73
2023/03/01 11:30:54;;;;;;;1.90;1.80;;;19.20;33.90;;;;;;4993438;28;21075;-77
2023/03/01 11:33:43;;;;;;;2.33;2.17;;;19.10;33.80;;;;;;4980089;28;20436;-76
2023/03/01 11:36:16;;;;;;;2.00;1.90;;;19.20;33.90;;;;;;4994539;28;20497;-74
2023/03/01 11:38:43;;;;;;;2.00;1.90;;;19.20;33.90;;;;;;4990883;28;20519;-76
2023/03/01 11:41:18;;;;;;;1.83;1.73;;;19.20;33.90;;;;;;4981539;28;20981;-74
2023/03/01 11:44:00;;;;;;;2.10;2.00;;;19.10;33.80;;;;;;4987259;28;20564;-68
2023/03/01 11:46:31;;;;;;;2.10;2.00;;;19.10;33.80;;;;;;4990205;28;20459;-72
2023/03/01 11:49:40;;;;;;;2.30;2.10;;;19.10;33.80;;;;;;4995728;28;20836;-70
2023/03/01 11:52:49;;;;;;;1.90;1.80;;;19.10;33.90;;;;;;4995255;28;20447;-71
2023/03/01 11:55:14;;;;;;;2.40;2.30;;;19.10;34.00;;;;;;4991160;28;20840;-71
2023/03/01 11:58:28;;;;;;;1.97;1.87;;;19.10;34.00;;;;;;4989452;28;20975;-70
2023/03/01 12:01:09;;;;;;;2.13;1.97;;;19.10;34.00;;;;;;4987000;28;20849;-70
2023/03/01 12:03:56;;;;;;;2.60;2.40;;;19.10;34.00;;;;;;4994669;28;20473;-70
2023/03/01 12:06:44;;;;;;;2.10;2.00;;;19.10;34.00;;;;;;4992730;28;20993;-70
2023/03/01 12:09:41;;;;;;;2.23;2.07;;;19.10;34.00;;;;;;4987069;28;20880;-69
2023/03/01 12:12:51;;;;;;;2.10;2.00;;;19.10;34.00;;;;;;4987448;28;20474;-70
2023/03/01 12:15:57;;;;;;;1.90;1.80;;;19.10;34.00;;;;;;4990859;28;20582;-70
2023/03/01 12:18:52;;;;;;;1.90;1.80;;;19.10;34.10;;;;;;4981338;28;20447;-70
2023/03/01 12:21:43;;;;;;;2.10;2.00;;;19.10;34.10;;;;;;4978956;28;20433;-70
2023/03/01 12:24:35;;;;;;;2.30;2.20;;;19.10;34.10;;;;;;4992779;28;20437;-71
2023/03/01 12:27:09;;;;;;;2.20;2.00;;;19.10;34.10;;;;;;5000915;28;20801;-71
2023/03/01 12:29:46;;;;;;;1.87;1.77;;;19.10;34.10;;;;;;4989370;28;20515;-71
2023/03/01 12:32:24;;;;;;;2.20;2.10;;;19.10;34.10;;;;;;4985994;28;20588;-71
2023/03/01 12:35:08;;;;;;;5.90;2.63;;;19.10;34.10;;;;;;4979456;28;20492;-71
2023/03/01 12:37:50;;;;;;;2.20;2.10;;;19.10;34.10;;;;;;4981414;28;20471;-69
2023/03/01 12:40:27;;;;;;;2.60;2.00;;;19.10;34.10;;;;;;4973864;28;20444;-69
2023/03/01 12:43:08;;;;;;;2.10;2.00;;;19.10;34.10;;;;;;4979426;28;20543;-69
2023/03/01 12:46:12;;;;;;;2.23;2.10;;;19.10;34.00;;;;;;4972417;28;20563;-69
2023/03/01 12:48:50;;;;;;;2.60;2.00;;;19.10;34.00;;;;;;4982508;28;20455;-69
2023/03/01 12:51:22;;;;;;;4.60;2.40;;;19.10;34.00;;;;;;4987061;28;21005;-69
2023/03/01 12:53:50;;;;;;;2.97;2.60;;;19.10;34.00;;;;;;4990743;28;20432;-69
2023/03/01 12:56:26;;;;;;;9.73;2.20;;;19.20;34.00;;;;;;4976293;28;20522;-69
2023/03/01 12:59:08;;;;;;;2.93;2.67;;;19.10;33.90;;;;;;4983564;28;20828;-69
2023/03/01 13:02:06;;;;;;;5.87;2.93;;;19.20;33.90;;;;;;4981004;28;20524;-69
2023/03/01 13:04:51;;;;;;;2.20;2.10;;;19.20;33.90;;;;;;4990848;28;20479;-70
2023/03/01 13:07:19;;;;;;;2.73;2.27;;;19.20;33.90;;;;;;4978070;28;20443;-69
2023/03/01 13:10:03;;;;;;;2.23;2.03;;;19.20;33.90;;;;;;4982142;28;20463;-69